createdAt,value
2016-05-28T09:44:26.262Z,40
2016-05-28T09:45:26.218Z,44
2016-05-28T09:46:26.174Z,36
2016-05-28T09:47:25.958Z,48
2016-05-28T09:48:26.071Z,48
2016-05-28T09:49:26.041Z,48
2016-05-28T09:50:26.028Z,52
2016-05-28T09:51:25.781Z,48
2016-05-28T09:52:25.753Z,44
2016-05-28T09:53:25.708Z,44
2016-05-28T09:54:25.664Z,40
2016-05-28T09:55:25.636Z,44
2016-05-28T09:56:25.826Z,44
2016-05-28T09:57:29.094Z,44
2016-05-28T09:58:25.753Z,40
2016-05-28T09:59:25.631Z,44
2016-05-28T10:00:25.571Z,40
2016-05-28T10:01:25.542Z,48
2016-05-28T10:02:30.357Z,40
2016-05-28T10:03:25.453Z,44
2016-05-28T10:04:25.426Z,40
2016-05-28T10:05:25.225Z,40
2016-05-28T10:06:25.336Z,40
2016-05-28T10:07:27.340Z,36
2016-05-28T10:08:25.108Z,40
2016-05-28T10:09:25.252Z,36
2016-05-28T10:10:25.177Z,44
2016-05-28T10:11:25.148Z,48
2016-05-28T10:12:27.432Z,28
2016-05-28T10:13:25.105Z,32
2016-05-28T10:14:24.905Z,28
2016-05-28T10:15:25.002Z,40
2016-05-28T10:16:24.958Z,36
2016-05-28T10:17:29.649Z,36
2016-05-28T10:18:24.885Z,36
2016-05-28T10:19:25.451Z,36
2016-05-28T10:20:25.328Z,36
2016-05-28T10:21:24.768Z,28
2016-05-28T10:22:30.271Z,36
2016-05-28T10:23:24.712Z,40
2016-05-28T10:24:24.682Z,36
2016-05-28T10:25:24.466Z,36
2016-05-28T10:26:24.626Z,36
2016-05-28T10:27:28.190Z,36
2016-05-28T10:28:24.521Z,32
2016-05-28T10:29:24.477Z,36
2016-05-28T10:30:24.308Z,40
2016-05-28T10:31:24.248Z,40
2016-05-28T10:32:25.439Z,40
2016-05-28T10:33:24.363Z,40
2016-05-28T10:34:24.756Z,36
2016-05-28T10:35:24.087Z,20
2016-05-28T10:36:24.214Z,28
2016-05-28T10:37:24.170Z,36
2016-05-28T10:38:24.157Z,36
2016-05-28T10:39:24.113Z,32
2016-05-28T10:40:23.757Z,36
2016-05-28T10:41:24.025Z,40
2016-05-28T10:42:23.996Z,40
2016-05-28T10:43:23.952Z,40
2016-05-28T10:44:23.924Z,36
2016-05-28T10:45:23.707Z,36
2016-05-28T10:46:23.851Z,36
2016-05-28T10:47:23.791Z,40
2016-05-28T10:48:23.762Z,36
2016-05-28T10:49:23.593Z,36
2016-05-28T10:50:23.971Z,36
2016-05-28T10:51:23.646Z,40
2016-05-28T10:52:23.460Z,40
2016-05-28T10:53:23.573Z,40
2016-05-28T10:54:23.545Z,36
2016-05-28T10:55:23.891Z,40
2016-05-28T10:56:23.471Z,40
2016-05-28T10:57:23.428Z,36
2016-05-28T10:58:23.399Z,40
2016-05-28T10:59:23.354Z,40
2016-05-28T11:00:23.311Z,40
2016-05-28T11:01:23.297Z,40
2016-05-28T11:02:23.254Z,20
2016-05-28T11:03:23.069Z,32
2016-05-28T11:04:23.165Z,28
2016-05-28T11:05:23.402Z,36
2016-05-28T11:06:23.108Z,36
2016-05-28T11:07:22.892Z,40
2016-05-28T11:08:22.863Z,40
2016-05-28T11:09:22.991Z,36
2016-05-28T11:10:22.931Z,40
2016-05-28T11:11:22.933Z,28
2016-05-28T11:12:22.874Z,28
2016-05-28T11:13:22.830Z,24
2016-05-28T11:14:22.786Z,28
2016-05-28T11:15:22.757Z,20
2016-05-28T11:16:22.729Z,36
2016-05-28T11:17:22.372Z,24
2016-05-28T11:18:22.656Z,20
2016-05-28T11:19:22.471Z,20
2016-05-28T11:20:22.958Z,24
2016-05-28T11:21:22.539Z,16
2016-05-28T11:22:22.511Z,32
2016-05-28T11:23:22.325Z,36
2016-05-28T11:24:22.421Z,32
2016-05-28T11:25:22.393Z,24
2016-05-28T11:26:22.193Z,24
2016-05-28T11:27:22.164Z,16
2016-05-28T11:28:22.261Z,12
2016-05-28T11:29:22.248Z,36
2016-05-28T11:30:22.188Z,32
2016-05-28T11:31:22.175Z,32
2016-05-28T11:32:22.131Z,36
2016-05-28T11:33:22.103Z,36
2016-05-28T11:34:22.137Z,32
2016-05-28T11:35:21.858Z,32
2016-05-28T11:36:21.969Z,32
2016-05-28T11:37:21.941Z,32
2016-05-28T11:38:21.897Z,28
2016-05-28T11:39:21.869Z,32
2016-05-28T11:40:21.683Z,32
2016-05-28T11:41:21.797Z,32
2016-05-28T11:42:21.752Z,32
2016-05-28T11:43:21.738Z,32
2016-05-28T11:44:21.663Z,28
2016-05-28T11:45:21.635Z,28
2016-05-28T11:46:21.435Z,32
2016-05-28T11:47:21.563Z,32
2016-05-28T11:48:21.518Z,32
2016-05-28T11:49:21.723Z,32
2016-05-28T11:50:21.899Z,32
2016-05-28T11:51:21.416Z,32
2016-05-28T11:52:21.372Z,32
2016-05-28T11:53:21.187Z,32
2016-05-28T11:54:21.143Z,28
2016-05-28T11:55:21.287Z,32
2016-05-28T11:56:21.227Z,32
2016-05-28T11:57:21.198Z,32
2016-05-28T11:58:21.154Z,28
2016-05-28T11:59:20.969Z,28
2016-05-28T12:00:20.941Z,28
2016-05-28T12:01:20.881Z,32
2016-05-28T12:02:21.056Z,32
2016-05-28T12:03:20.964Z,32
2016-05-28T12:04:21.202Z,32
2016-05-28T12:05:21.251Z,32
2016-05-28T12:06:20.863Z,28
2016-05-28T12:07:20.820Z,32
2016-05-28T12:08:20.821Z,36
2016-05-28T12:09:20.590Z,28
2016-05-28T12:10:20.734Z,28
2016-05-28T12:11:20.705Z,20
2016-05-28T12:12:20.644Z,20
2016-05-28T12:13:20.601Z,32
2016-05-28T12:14:20.572Z,32
2016-05-28T12:15:20.372Z,36
2016-05-28T12:16:20.483Z,36
2016-05-28T12:17:20.314Z,36
2016-05-28T12:18:20.411Z,32
2016-05-28T12:19:20.414Z,36
2016-05-28T12:20:20.338Z,36
2016-05-28T12:21:20.372Z,32
2016-05-28T12:22:20.327Z,16
2016-05-28T12:23:20.237Z,12
2016-05-28T12:24:20.208Z,12
2016-05-28T12:25:20.180Z,12
2016-05-28T12:26:19.963Z,8
2016-05-28T12:27:20.091Z,12
2016-05-28T12:28:20.047Z,8
2016-05-28T12:29:19.863Z,8
2016-05-28T12:30:19.974Z,8
2016-05-28T12:31:19.633Z,12
2016-05-28T12:32:19.901Z,12
2016-05-28T12:33:19.701Z,12
2016-05-28T12:34:19.845Z,12
2016-05-28T12:35:19.644Z,8
2016-05-28T12:36:19.757Z,8
2016-05-28T12:37:19.712Z,8
2016-05-28T12:38:19.512Z,8
2016-05-28T12:39:19.640Z,8
2016-05-28T12:41:18.770Z,72
2016-05-28T12:42:18.663Z,68
2016-05-28T12:43:18.588Z,64
2016-05-28T12:44:18.544Z,60
2016-05-28T12:45:18.374Z,60
2016-05-28T12:46:18.159Z,60
2016-05-28T12:47:18.442Z,60
2016-05-28T12:48:18.397Z,56
2016-05-28T12:49:18.369Z,52
2016-05-28T12:50:18.497Z,56
2016-05-28T12:51:18.265Z,52
2016-05-28T12:52:18.065Z,48
2016-05-28T12:53:18.021Z,48
2016-05-28T12:54:18.023Z,48
2016-05-28T12:55:18.088Z,48
2016-05-28T12:56:18.076Z,48
2016-05-28T12:57:18.078Z,44
2016-05-28T12:58:17.987Z,40
2016-05-28T12:59:17.944Z,44
2016-05-28T13:00:17.930Z,40
2016-05-28T13:01:17.698Z,40
2016-05-28T13:02:17.936Z,40
2016-05-28T13:03:17.876Z,40
2016-05-28T13:04:17.754Z,36
2016-05-28T13:05:18.318Z,40
2016-05-28T13:06:17.696Z,28
2016-05-28T13:07:17.449Z,24
2016-05-28T13:08:17.546Z,24
2016-05-28T13:09:17.533Z,24
2016-05-28T13:10:17.488Z,24
2016-05-28T13:11:17.303Z,20
2016-05-28T13:12:17.416Z,24
2016-05-28T13:13:17.372Z,24
2016-05-28T13:14:17.311Z,20
2016-05-28T13:15:17.283Z,24
2016-05-28T13:16:17.239Z,20
2016-05-28T13:17:17.194Z,24
2016-05-28T13:18:17.150Z,24
2016-05-28T13:19:17.152Z,20
2016-05-28T13:20:17.563Z,20
2016-05-28T13:21:17.033Z,20
2016-05-28T13:22:17.002Z,16
2016-05-28T13:23:16.943Z,16
2016-05-28T13:24:16.899Z,20
2016-05-28T13:25:16.744Z,20
2016-05-28T13:26:16.810Z,16
2016-05-28T13:27:17.141Z,16
2016-05-28T13:28:16.784Z,20
2016-05-28T13:29:16.710Z,20
2016-05-28T13:30:16.649Z,20
2016-05-28T13:31:16.605Z,24
2016-05-28T13:32:16.592Z,20
2016-05-28T13:33:16.548Z,20
2016-05-28T13:34:16.488Z,24
2016-05-28T13:35:16.444Z,24
2016-05-28T13:36:16.384Z,28
2016-05-28T13:37:16.215Z,24
2016-05-28T13:38:16.171Z,28
2016-05-28T13:39:16.267Z,32
2016-05-28T13:40:16.254Z,36
2016-05-28T13:41:16.178Z,36
2016-05-28T13:42:15.978Z,40
2016-05-28T13:43:15.965Z,40
2016-05-28T13:44:16.078Z,40
2016-05-28T13:45:16.048Z,40
2016-05-28T13:46:15.661Z,40
2016-05-28T13:47:15.819Z,40
2016-05-28T13:48:15.916Z,36
2016-05-28T13:49:15.856Z,36
2016-05-28T13:50:15.952Z,36
2016-05-28T13:51:15.769Z,40
2016-05-28T13:52:15.739Z,44
2016-05-28T13:53:15.680Z,40
2016-05-28T13:54:15.666Z,44
2016-05-28T13:55:15.591Z,48
2016-05-28T13:56:15.563Z,52
2016-05-28T13:57:15.503Z,52
2016-05-28T13:58:15.474Z,56
2016-05-28T13:59:15.446Z,60
2016-05-28T14:00:15.401Z,64
2016-05-28T14:01:15.341Z,64
2016-05-28T14:02:15.173Z,64
2016-05-28T14:03:15.269Z,68
2016-05-28T14:04:15.068Z,68
2016-05-28T14:05:15.056Z,72
2016-05-28T14:06:15.152Z,72
2016-05-28T14:07:14.920Z,72
2016-05-28T14:08:15.064Z,76
2016-05-28T14:09:15.020Z,80
2016-05-28T14:10:14.960Z,80
2016-05-28T14:11:14.900Z,80
2016-05-28T14:12:14.886Z,80
2016-05-28T14:13:14.843Z,84
2016-05-28T14:14:14.798Z,84
2016-05-28T14:15:14.598Z,88
2016-05-28T14:16:14.749Z,88
2016-05-28T14:17:14.728Z,92
2016-05-28T14:18:14.395Z,92
2016-05-28T14:19:14.687Z,104
2016-05-28T14:20:14.673Z,116
2016-05-28T14:21:14.622Z,148
2016-05-28T14:22:14.619Z,224
2016-05-28T14:23:14.552Z,276
2016-05-28T14:24:14.407Z,288
2016-05-28T14:25:14.336Z,288
2016-05-28T14:26:14.311Z,284
2016-05-28T14:27:14.427Z,280
2016-05-28T14:28:14.401Z,276
2016-05-28T14:29:14.329Z,268
2016-05-28T14:30:14.303Z,260
2016-05-28T14:31:14.274Z,256
2016-05-28T14:32:14.247Z,244
2016-05-28T14:33:14.017Z,240
2016-05-28T14:34:13.988Z,228
2016-05-28T14:35:14.446Z,220
2016-05-28T14:36:13.761Z,216
2016-05-28T14:37:14.014Z,208
2016-05-28T14:38:13.956Z,204
2016-05-28T14:39:13.958Z,204
2016-05-28T14:40:13.899Z,156
2016-05-28T14:41:13.839Z,144
2016-05-28T14:42:13.795Z,128
2016-05-28T14:43:13.781Z,152
2016-05-28T14:44:13.737Z,132
2016-05-28T14:45:13.692Z,156
2016-05-28T14:46:13.649Z,164
2016-05-28T14:47:13.605Z,160
2016-05-28T14:48:13.545Z,140
2016-05-28T14:49:13.516Z,156
2016-05-28T14:50:13.941Z,148
2016-05-28T14:51:13.256Z,148
2016-05-28T14:52:13.399Z,148
2016-05-28T14:53:13.324Z,148
2016-05-28T14:54:13.311Z,152
2016-05-28T14:55:13.267Z,152
2016-05-28T14:56:13.191Z,152
2016-05-28T14:57:13.163Z,148
2016-05-28T14:58:13.119Z,148
2016-05-28T14:59:13.121Z,148
2016-05-28T15:00:12.875Z,148
2016-05-28T15:01:12.861Z,148
2016-05-28T15:02:12.957Z,148
2016-05-28T15:03:12.913Z,148
2016-05-28T15:04:12.885Z,148
2016-05-28T15:05:12.871Z,144
2016-05-28T15:06:12.781Z,144
2016-05-28T15:07:12.768Z,144
2016-05-28T15:08:12.599Z,148
2016-05-28T15:09:12.679Z,148
2016-05-28T15:10:12.479Z,152
2016-05-28T15:11:12.434Z,148
2016-05-28T15:12:12.532Z,152
2016-05-28T15:13:12.487Z,152
2016-05-28T15:14:12.568Z,152
2016-05-28T15:15:12.383Z,156
2016-05-28T15:16:12.245Z,156
2016-05-28T15:17:12.326Z,156
2016-05-28T15:18:12.359Z,160
2016-05-28T15:19:12.300Z,156
2016-05-28T15:20:12.053Z,156
2016-05-28T15:21:12.164Z,160
2016-05-28T15:22:12.136Z,160
2016-05-28T15:23:12.233Z,152
2016-05-28T15:24:12.282Z,152
2016-05-28T15:25:12.051Z,152
2016-05-28T15:26:11.975Z,152
2016-05-28T15:27:11.916Z,148
2016-05-28T15:28:11.716Z,144
2016-05-28T15:29:11.843Z,144
2016-05-28T15:30:11.783Z,144
2016-05-28T15:31:11.755Z,140
2016-05-28T15:32:11.726Z,136
2016-05-28T15:33:11.510Z,136
2016-05-28T15:34:11.637Z,132
2016-05-28T15:35:11.609Z,132
2016-05-28T15:36:11.549Z,128
2016-05-28T15:37:11.489Z,132
2016-05-28T15:38:11.493Z,128
2016-05-28T15:39:11.448Z,124
2016-05-28T15:40:11.373Z,120
2016-05-28T15:41:11.016Z,120
2016-05-28T15:42:11.299Z,120
2016-05-28T15:43:11.239Z,120
2016-05-28T15:44:11.227Z,120
2016-05-28T15:45:11.167Z,124
2016-05-28T15:46:11.139Z,124
2016-05-28T15:47:10.923Z,124
2016-05-28T15:48:11.034Z,124
2016-05-28T15:49:11.006Z,120
2016-05-28T15:50:10.805Z,120
2016-05-28T15:51:10.918Z,116
2016-05-28T15:52:10.873Z,116
2016-05-28T15:53:10.844Z,116
2016-05-28T15:54:10.801Z,108
2016-05-28T15:55:10.617Z,108
2016-05-28T15:56:10.744Z,108
2016-05-28T15:57:10.668Z,112
2016-05-28T15:58:10.624Z,108
2016-05-28T15:59:10.439Z,124
2016-05-28T16:00:10.536Z,132
2016-05-28T16:01:10.367Z,136
2016-05-28T16:02:10.478Z,132
2016-05-28T16:03:10.419Z,128
2016-05-28T16:04:10.358Z,108
2016-05-28T16:05:10.361Z,100
2016-05-28T16:06:10.286Z,108
2016-05-28T16:07:10.116Z,100
2016-05-28T16:08:09.916Z,96
2016-05-28T16:09:10.201Z,96
2016-05-28T16:10:10.109Z,88
2016-05-28T16:11:10.112Z,88
2016-05-28T16:12:10.052Z,88
2016-05-28T16:13:09.992Z,88
2016-05-28T16:14:09.807Z,84
2016-05-28T16:15:09.920Z,84
2016-05-28T16:16:09.891Z,84
2016-05-28T16:17:10.206Z,84
2016-05-28T16:18:09.787Z,84
2016-05-28T16:19:09.774Z,80
2016-05-28T16:20:11.746Z,80
2016-05-28T16:21:09.670Z,80
2016-05-28T16:22:09.689Z,80
2016-05-28T16:23:09.598Z,84
2016-05-28T16:24:09.553Z,80
2016-05-28T16:25:09.197Z,80
2016-05-28T16:26:09.449Z,80
2016-05-28T16:27:09.406Z,80
2016-05-28T16:28:09.080Z,76
2016-05-28T16:29:09.348Z,76
2016-05-28T16:30:09.303Z,76
2016-05-28T16:31:09.306Z,76
2016-05-28T16:32:09.200Z,76
2016-05-28T16:33:09.202Z,76
2016-05-28T16:34:09.143Z,76
2016-05-28T16:35:10.146Z,76
2016-05-28T16:36:09.069Z,72
2016-05-28T16:37:08.855Z,72
2016-05-28T16:38:08.966Z,72
2016-05-28T16:39:09.046Z,72
2016-05-28T16:40:08.877Z,68
2016-05-28T16:41:08.833Z,68
2016-05-28T16:42:08.805Z,40
2016-05-28T16:43:08.588Z,80
2016-05-28T16:44:08.716Z,80
2016-05-28T16:45:08.657Z,80
2016-05-28T16:46:08.643Z,80
2016-05-28T16:47:08.584Z,80
2016-05-28T16:48:08.571Z,80
2016-05-28T16:49:08.543Z,76
2016-05-28T16:50:08.326Z,80
2016-05-28T16:51:08.423Z,76
2016-05-28T16:52:08.378Z,80
2016-05-28T16:53:08.178Z,80
2016-05-28T16:54:08.118Z,76
2016-05-28T16:55:08.245Z,80
2016-05-28T16:56:08.202Z,80
2016-05-28T16:57:08.158Z,76
2016-05-28T16:58:08.128Z,76
2016-05-28T16:59:07.961Z,76
2016-05-28T17:00:08.072Z,72
2016-05-28T17:01:08.011Z,72
2016-05-28T17:02:07.936Z,68
2016-05-28T17:03:07.767Z,68
2016-05-28T17:04:07.724Z,68
2016-05-28T17:05:09.444Z,68
2016-05-28T17:06:07.808Z,68
2016-05-28T17:07:07.763Z,64
2016-05-28T17:08:07.719Z,68
2016-05-28T17:09:07.643Z,64
2016-05-28T17:10:07.615Z,64
2016-05-28T17:11:07.601Z,64
2016-05-28T17:12:07.386Z,64
2016-05-28T17:13:07.498Z,60
2016-05-28T17:14:07.454Z,60
2016-05-28T17:15:07.253Z,60
2016-05-28T17:16:07.412Z,60
2016-05-28T17:17:07.337Z,60
2016-05-28T17:18:07.277Z,56
2016-05-28T17:19:07.232Z,56
2016-05-28T17:20:07.407Z,56
2016-05-28T17:21:07.034Z,56
2016-05-28T17:22:07.115Z,52
2016-05-28T17:23:07.103Z,56
2016-05-28T17:24:07.028Z,52
2016-05-28T17:25:07.155Z,52
2016-05-28T17:26:06.954Z,52
2016-05-28T17:27:06.911Z,52
2016-05-28T17:28:06.850Z,52
2016-05-28T17:29:06.837Z,52
2016-05-28T17:30:06.793Z,52
2016-05-28T17:31:06.734Z,48
2016-05-28T17:32:06.549Z,48
2016-05-28T17:33:06.504Z,48
2016-05-28T17:34:06.617Z,48
2016-05-28T17:35:06.478Z,52
2016-05-28T17:36:06.527Z,48
2016-05-28T17:37:06.484Z,44
2016-05-28T17:38:06.456Z,48
2016-05-28T17:39:06.286Z,48
2016-05-28T17:40:06.351Z,44
2016-05-28T17:41:06.307Z,44
2016-05-28T17:42:06.278Z,44
2016-05-28T17:43:06.219Z,44
2016-05-28T17:44:06.190Z,44
2016-05-28T17:45:06.193Z,44
2016-05-28T17:46:05.805Z,44
2016-05-28T17:47:05.901Z,44
2016-05-28T17:48:06.013Z,40
2016-05-28T17:49:05.860Z,40
2016-05-28T17:50:05.957Z,40
2016-05-28T17:51:06.600Z,40
2016-05-28T17:52:05.696Z,36
2016-05-28T17:53:05.809Z,36
2016-05-28T17:54:05.764Z,36
2016-05-28T17:55:05.704Z,36
2016-05-28T17:56:05.675Z,36
2016-05-28T17:57:05.647Z,36
2016-05-28T17:58:05.587Z,32
2016-05-28T17:59:05.542Z,36
2016-05-28T18:00:05.531Z,36
2016-05-28T18:01:05.470Z,36
2016-05-28T18:02:05.425Z,32
2016-05-28T18:03:05.398Z,32
2016-05-28T18:04:05.338Z,28
2016-05-28T18:05:05.308Z,32
2016-05-28T18:06:05.265Z,28
2016-05-28T18:07:05.065Z,28
2016-05-28T18:08:05.177Z,32
2016-05-28T18:09:04.991Z,28
2016-05-28T18:10:05.120Z,24
2016-05-28T18:11:05.060Z,28
2016-05-28T18:12:04.999Z,28
2016-05-28T18:13:04.955Z,24
2016-05-28T18:14:04.912Z,24
2016-05-28T18:15:04.868Z,24
2016-05-28T18:16:04.854Z,24
2016-05-28T18:17:04.810Z,24
2016-05-28T18:18:04.735Z,24
2016-05-28T18:19:05.050Z,24
2016-05-28T18:20:05.334Z,24
2016-05-28T18:21:04.462Z,24
2016-05-28T18:22:04.620Z,20
2016-05-28T18:23:04.421Z,20
2016-05-28T18:24:04.532Z,12
2016-05-28T18:25:04.472Z,20
2016-05-28T18:26:04.257Z,20
2016-05-28T18:27:04.368Z,16
2016-05-28T18:28:04.324Z,16
2016-05-28T18:29:04.295Z,16
2016-05-28T18:30:03.939Z,12
2016-05-28T18:31:04.208Z,16
2016-05-28T18:32:04.006Z,16
2016-05-28T18:33:04.103Z,12
2016-05-28T18:34:04.059Z,12
2016-05-28T18:35:04.374Z,12
2016-05-28T18:36:03.986Z,8
2016-05-28T18:37:03.927Z,12
2016-05-28T18:38:03.897Z,12
2016-05-28T18:39:03.838Z,12
2016-05-28T18:40:03.669Z,12
2016-05-28T18:41:03.766Z,8
2016-05-28T18:42:03.549Z,12
2016-05-28T18:43:03.677Z,8
2016-05-28T18:44:03.663Z,8
2016-05-28T18:45:03.635Z,8
2016-05-28T18:46:03.560Z,8
2016-05-28T18:47:03.516Z,8
2016-05-28T18:48:03.456Z,4
2016-05-28T18:49:03.443Z,4
2016-05-28T18:50:04.493Z,8
2016-05-28T18:51:03.339Z,4
2016-05-28T18:52:03.296Z,4
2016-05-28T18:53:03.267Z,4
2016-05-28T18:54:03.190Z,4
2016-05-28T18:55:03.225Z,4
2016-05-28T18:56:03.118Z,4
2016-05-28T18:57:02.934Z,0
2016-05-28T18:58:03.030Z,4
2016-05-28T18:59:03.001Z,4
2016-05-28T19:00:02.925Z,4
2016-05-28T19:01:02.757Z,0
2016-05-28T19:02:02.869Z,0
2016-05-28T19:03:02.668Z,4
2016-05-28T19:04:02.640Z,4
2016-05-28T19:05:02.439Z,4
2016-05-28T19:06:02.692Z,0
2016-05-28T19:07:02.647Z,0
2016-05-28T19:08:02.603Z,0
2016-05-28T19:09:02.560Z,0
2016-05-28T19:10:02.515Z,4
2016-05-28T19:11:02.471Z,4
2016-05-28T19:12:02.411Z,4
2016-05-28T19:13:02.398Z,0
2016-05-28T19:14:02.370Z,0
2016-05-28T19:15:02.138Z,0
2016-05-28T19:16:02.110Z,0
2016-05-28T19:17:02.268Z,0
2016-05-28T19:18:02.163Z,0
2016-05-28T19:19:01.977Z,0
2016-05-28T19:20:01.917Z,0
2016-05-28T19:21:01.873Z,0
2016-05-28T19:22:02.001Z,0
2016-05-28T19:23:01.926Z,0
2016-05-28T19:24:01.771Z,0
2016-05-28T19:25:01.853Z,0
2016-05-28T19:26:01.793Z,0
2016-05-28T19:27:01.764Z,0
2016-05-28T19:28:01.720Z,0
2016-05-28T19:29:01.519Z,0
2016-05-28T19:30:01.647Z,0
2016-05-28T19:31:01.587Z,0
2016-05-28T19:32:01.387Z,0
2016-05-28T19:33:01.342Z,0
2016-05-28T19:34:01.596Z,0
2016-05-28T19:35:02.520Z,0
2016-05-28T19:36:01.694Z,0
2016-05-28T19:37:01.636Z,0
2016-05-28T19:38:01.622Z,0
2016-05-28T19:39:01.421Z,0
2016-05-28T19:40:01.299Z,0
2016-05-28T19:41:01.474Z,0
2016-05-28T19:42:01.430Z,0
2016-05-28T19:43:01.448Z,0
2016-05-28T19:44:01.216Z,0
2016-05-28T19:45:01.187Z,0
2016-05-28T19:46:00.925Z,0
2016-05-28T19:47:00.896Z,0
2016-05-28T19:48:00.852Z,0
2016-05-28T19:49:00.652Z,0
2016-05-28T19:50:00.763Z,0
2016-05-28T19:51:00.719Z,0
2016-05-28T19:52:00.784Z,0
2016-05-28T19:53:00.631Z,0
2016-05-28T19:54:00.602Z,0
2016-05-28T19:55:00.543Z,0
2016-05-28T19:56:00.670Z,0
2016-05-28T19:57:00.454Z,0
2016-05-28T19:58:00.395Z,0
2016-05-28T19:59:00.365Z,0
2016-05-28T20:00:00.306Z,0
2016-05-28T20:01:00.309Z,0
2016-05-28T20:01:59.905Z,0
2016-05-28T20:03:00.205Z,0
2016-05-28T20:04:00.145Z,0
2016-05-28T20:05:00.273Z,0
2016-05-28T20:06:00.073Z,0
2016-05-28T20:06:59.855Z,0
2016-05-28T20:07:59.968Z,0
2016-05-28T20:08:59.925Z,0
2016-05-28T20:09:59.708Z,0
2016-05-28T20:11:03.054Z,0
2016-05-28T20:11:59.807Z,0
2016-05-28T20:12:59.747Z,0
2016-05-28T20:13:59.531Z,0
2016-05-28T20:14:59.644Z,0
2016-05-28T20:15:59.646Z,0
2016-05-28T20:16:59.555Z,0
2016-05-28T20:17:59.511Z,0
2016-05-28T20:18:59.544Z,0
2016-05-28T20:19:59.719Z,0
2016-05-28T20:20:59.707Z,0
2016-05-28T20:21:59.178Z,0
2016-05-28T20:22:59.321Z,0
2016-05-28T20:23:59.105Z,0
2016-05-28T20:24:59.217Z,0
2016-05-28T20:25:59.188Z,0
2016-05-28T20:26:59.113Z,0
2016-05-28T20:27:59.100Z,0
2016-05-28T20:28:58.729Z,0
2016-05-28T20:29:58.981Z,0
2016-05-28T20:30:58.936Z,0
2016-05-28T20:31:58.737Z,0
2016-05-28T20:32:58.832Z,0
2016-05-28T20:33:58.647Z,0
2016-05-28T20:34:58.666Z,0
2016-05-28T20:35:59.528Z,0
2016-05-28T20:36:58.655Z,0
2016-05-28T20:37:58.737Z,0
2016-05-28T20:38:58.427Z,0
2016-05-28T20:39:58.383Z,0
2016-05-28T20:40:58.494Z,0
2016-05-28T20:41:58.481Z,0
2016-05-28T20:42:58.391Z,0
2016-05-28T20:43:58.221Z,0
2016-05-28T20:44:58.319Z,0
2016-05-28T20:45:58.274Z,0
2016-05-28T20:46:58.244Z,0
2016-05-28T20:47:58.013Z,0
2016-05-28T20:48:58.141Z,0
2016-05-28T20:49:58.596Z,0
2016-05-28T20:50:57.755Z,0
2016-05-28T20:51:58.165Z,0
2016-05-28T20:52:57.964Z,0
2016-05-28T20:53:57.904Z,0
2016-05-28T20:54:57.876Z,0
2016-05-28T20:55:57.832Z,0
2016-05-28T20:56:57.771Z,0
2016-05-28T20:57:57.728Z,0
2016-05-28T20:58:57.777Z,0
2016-05-28T20:59:57.640Z,0
2016-05-28T21:00:57.595Z,0
2016-05-28T21:01:57.394Z,0
2016-05-28T21:02:57.522Z,0
2016-05-28T21:03:57.463Z,0
2016-05-28T21:04:57.559Z,0
2016-05-28T21:05:57.781Z,0
2016-05-28T21:06:57.331Z,0
2016-05-28T21:07:57.286Z,0
2016-05-28T21:08:57.226Z,0
2016-05-28T21:09:57.213Z,0
2016-05-28T21:10:57.138Z,0
2016-05-28T21:11:57.000Z,0
2016-05-28T21:12:57.049Z,0
2016-05-28T21:13:57.005Z,0
2016-05-28T21:14:56.945Z,0
2016-05-28T21:15:56.932Z,0
2016-05-28T21:16:56.904Z,0
2016-05-28T21:17:56.703Z,0
2016-05-28T21:18:56.799Z,0
2016-05-28T21:19:56.458Z,0
2016-05-28T21:20:56.540Z,0
2016-05-28T21:21:56.667Z,0
2016-05-28T21:22:56.888Z,0
2016-05-28T21:23:56.454Z,0
2016-05-28T21:24:56.504Z,0
2016-05-28T21:25:56.365Z,0
2016-05-28T21:26:56.462Z,0
2016-05-28T21:27:56.371Z,0
2016-05-28T21:28:56.326Z,0
2016-05-28T21:29:56.298Z,0
2016-05-28T21:30:56.113Z,0
2016-05-28T21:31:56.240Z,0
2016-05-28T21:32:56.150Z,0
2016-05-28T21:33:56.215Z,0
2016-05-28T21:34:55.749Z,0
2016-05-28T21:35:56.893Z,0
2016-05-28T21:36:55.817Z,0
2016-05-28T21:37:55.914Z,0
2016-05-28T21:38:56.103Z,0
2016-05-28T21:39:55.903Z,0
2016-05-28T21:40:55.781Z,0
2016-05-28T21:41:55.596Z,0
2016-05-28T21:42:55.692Z,0
2016-05-28T21:43:55.491Z,0
2016-05-28T21:44:55.447Z,0
2016-05-28T21:45:55.560Z,0
2016-05-28T21:46:55.516Z,0
2016-05-28T21:47:55.472Z,0
2016-05-28T21:48:55.427Z,0
2016-05-28T21:49:55.211Z,0
2016-05-28T21:50:55.183Z,0
2016-05-28T21:51:55.279Z,0
2016-05-28T21:52:55.094Z,0
2016-05-28T21:53:55.019Z,0
2016-05-28T21:54:54.990Z,0
2016-05-28T21:55:55.087Z,0
2016-05-28T21:56:55.058Z,0
2016-05-28T21:57:54.999Z,0
2016-05-28T21:58:54.829Z,0
2016-05-28T21:59:55.113Z,0
2016-05-28T22:00:54.741Z,0
2016-05-28T22:01:54.822Z,0
2016-05-28T22:02:54.778Z,0
2016-05-28T22:03:54.749Z,0
2016-05-28T22:04:54.736Z,0
2016-05-28T22:05:55.848Z,0
2016-05-28T22:06:54.600Z,0
2016-05-28T22:07:54.541Z,0
2016-05-28T22:08:54.497Z,0
2016-05-28T22:09:54.468Z,0
2016-05-28T22:10:54.425Z,0
2016-05-28T22:11:54.380Z,0
2016-05-28T22:12:54.320Z,0
2016-05-28T22:13:54.276Z,0
2016-05-28T22:14:54.247Z,0
2016-05-28T22:15:54.203Z,0
2016-05-28T22:16:54.128Z,0
2016-05-28T22:17:54.083Z,0
2016-05-28T22:18:54.055Z,0
2016-05-28T22:19:53.699Z,0
2016-05-28T22:20:54.966Z,0
2016-05-28T22:21:53.766Z,0
2016-05-28T22:22:53.847Z,0
2016-05-28T22:23:53.819Z,0
2016-05-28T22:24:53.774Z,0
2016-05-28T22:25:53.746Z,0
2016-05-28T22:26:53.374Z,0
2016-05-28T22:27:53.626Z,0
2016-05-28T22:28:53.426Z,0
2016-05-28T22:29:53.538Z,0
2016-05-28T22:30:53.509Z,0
2016-05-28T22:31:53.449Z,0
2016-05-28T22:32:53.451Z,0
2016-05-28T22:33:53.361Z,0
2016-05-28T22:34:53.582Z,0
2016-05-28T22:35:54.367Z,0
2016-05-28T22:36:53.228Z,0
2016-05-28T22:37:53.184Z,0
2016-05-28T22:38:53.125Z,0
2016-05-28T22:39:53.095Z,0
2016-05-28T22:40:52.880Z,0
2016-05-28T22:41:53.008Z,0
2016-05-28T22:42:52.948Z,0
2016-05-28T22:43:52.748Z,0
2016-05-28T22:44:52.718Z,0
2016-05-28T22:45:52.814Z,0
2016-05-28T22:46:52.771Z,0
2016-05-28T22:47:52.711Z,0
2016-05-28T22:48:52.510Z,0
2016-05-28T22:49:53.029Z,0
2016-05-28T22:50:53.032Z,0
2016-05-28T22:51:52.394Z,0
2016-05-28T22:52:52.350Z,0
2016-05-28T22:53:52.321Z,0
2016-05-28T22:54:52.402Z,0
2016-05-28T22:55:52.374Z,0
2016-05-28T22:56:52.157Z,0
2016-05-28T22:57:52.269Z,0
2016-05-28T22:58:52.100Z,0
2016-05-28T22:59:52.322Z,0
2016-05-28T23:00:52.151Z,0
2016-05-28T23:01:52.076Z,0
2016-05-28T23:02:51.721Z,0
2016-05-28T23:03:52.004Z,0
2016-05-28T23:04:51.960Z,0
2016-05-28T23:05:52.790Z,0
2016-05-28T23:06:51.857Z,0
2016-05-28T23:07:51.811Z,0
2016-05-28T23:08:51.767Z,0
2016-05-28T23:09:51.708Z,0
2016-05-28T23:10:51.523Z,0
2016-05-28T23:11:51.635Z,0
2016-05-28T23:12:51.575Z,0
2016-05-28T23:13:51.531Z,0
2016-05-28T23:14:51.503Z,0
2016-05-28T23:15:51.442Z,0
2016-05-28T23:16:51.398Z,0
2016-05-28T23:17:51.339Z,0
2016-05-28T23:18:51.311Z,0
2016-05-28T23:19:51.438Z,0
2016-05-28T23:20:51.728Z,0
2016-05-28T23:21:51.210Z,0
2016-05-28T23:22:51.207Z,0
2016-05-28T23:23:51.189Z,0
2016-05-28T23:24:51.170Z,0
2016-05-28T23:25:50.981Z,0
2016-05-28T23:26:51.103Z,0
2016-05-28T23:27:51.083Z,0
2016-05-28T23:28:51.033Z,0
2016-05-28T23:29:50.982Z,0
2016-05-28T23:30:50.771Z,0
2016-05-28T23:31:50.729Z,0
2016-05-28T23:32:50.861Z,0
2016-05-28T23:33:50.663Z,0
2016-05-28T23:34:50.920Z,0
2016-05-28T23:35:51.205Z,0
2016-05-28T23:36:50.693Z,0
2016-05-28T23:37:50.649Z,0
2016-05-28T23:38:50.622Z,0
2016-05-28T23:39:50.393Z,0
2016-05-28T23:40:50.349Z,0
2016-05-28T23:41:50.445Z,0
2016-05-28T23:42:50.417Z,0
2016-05-28T23:43:50.374Z,0
2016-05-28T23:44:50.314Z,0
2016-05-28T23:45:49.958Z,0
2016-05-28T23:46:50.085Z,0
2016-05-28T23:47:50.181Z,0
2016-05-28T23:48:50.122Z,0
2016-05-28T23:49:50.155Z,0
2016-05-28T23:50:50.361Z,0
2016-05-28T23:51:50.005Z,0
2016-05-28T23:52:49.945Z,0
2016-05-28T23:53:49.776Z,0
2016-05-28T23:54:49.857Z,0
2016-05-28T23:55:49.828Z,0
2016-05-28T23:56:49.785Z,0
2016-05-28T23:57:49.724Z,0
2016-05-28T23:58:49.679Z,0
2016-05-28T23:59:49.635Z,0
